Time;durP1;ratioP1;P1;durP2;ratioP2;P2;SDS_P1;SDS_P2;PMS_P1;PMS_P2;Temp;Humidity;BMP_temperature;BMP_pressure;BME280_temperature;BME280_humidity;BME280_pressure;Samples;Min_cycle;Max_cycle;Signal;HPM_P1;HPM_P2
2022/05/25 00:00:10;;;;;;;3.22;2.15;;;13.60;61.60;;;;;;4993342;28;20042;-75
2022/05/25 00:02:37;;;;;;;3.22;2.10;;;13.60;61.70;;;;;;4994207;28;20497;-77
2022/05/25 00:05:05;;;;;;;3.05;2.38;;;13.60;61.70;;;;;;4997182;28;20082;-75
2022/05/25 00:07:31;;;;;;;4.22;2.92;;;13.60;61.80;;;;;;4994186;28;20413;-76
2022/05/25 00:09:56;;;;;;;4.65;2.40;;;13.50;61.80;;;;;;4995374;28;20042;-76
2022/05/25 00:12:22;;;;;;;3.60;2.78;;;13.60;62.00;;;;;;4995104;28;20046;-76
2022/05/25 00:14:48;;;;;;;4.07;3.13;;;13.50;62.00;;;;;;4994578;28;20125;-76
2022/05/25 00:17:14;;;;;;;3.20;2.08;;;13.50;61.90;;;;;;4999791;28;20049;-75
2022/05/25 00:22:23;;;;;;;4.45;2.92;;;13.50;62.10;;;;;;5011766;28;20046;-75
2022/05/25 00:24:49;;;;;;;5.47;3.83;;;13.50;62.60;;;;;;5005001;28;20038;-75
2022/05/25 00:27:15;;;;;;;6.95;5.55;;;13.40;62.30;;;;;;5001259;28;20045;-76
2022/05/25 00:29:40;;;;;;;7.45;5.70;;;13.40;62.50;;;;;;4992706;28;20050;-75
2022/05/25 00:32:07;;;;;;;4.43;4.00;;;13.40;62.60;;;;;;5014631;28;20050;-75
2022/05/25 00:34:33;;;;;;;9.20;5.90;;;13.40;62.70;;;;;;5015225;28;20058;-75
2022/05/25 00:36:59;;;;;;;7.10;5.07;;;13.30;62.70;;;;;;5001651;28;20061;-75
2022/05/25 00:39:25;;;;;;;5.50;3.50;;;13.20;62.70;;;;;;5017167;28;20044;-75
2022/05/25 00:41:51;;;;;;;5.47;4.97;;;13.20;62.80;;;;;;5015277;28;20444;-75
2022/05/25 00:44:18;;;;;;;4.95;4.45;;;13.10;62.80;;;;;;5004892;28;20081;-74
2022/05/25 00:46:44;;;;;;;4.63;3.78;;;13.00;62.90;;;;;;4998053;28;20137;-77
2022/05/25 00:49:25;;;;;;;7.78;4.35;;;13.00;63.00;;;;;;5020058;28;20404;-76
2022/05/25 00:52:01;;;;;;;4.20;3.80;;;12.90;63.20;;;;;;5016923;28;20052;-76
2022/05/25 00:54:31;;;;;;;5.35;4.40;;;12.90;63.30;;;;;;5011221;28;20054;-76
2022/05/25 00:57:01;;;;;;;4.40;3.97;;;12.80;63.40;;;;;;4996685;28;20038;-76
2022/05/25 00:59:31;;;;;;;4.95;3.72;;;12.80;63.50;;;;;;5013773;28;20096;-74
2022/05/25 01:01:58;;;;;;;6.47;4.95;;;12.80;63.60;;;;;;5016692;28;20069;-74
2022/05/25 01:04:24;;;;;;;5.47;3.47;;;12.70;63.80;;;;;;5001830;28;20038;-74
2022/05/25 01:07:12;;;;;;;3.50;2.90;;;12.70;63.90;;;;;;5013565;28;20045;-74
2022/05/25 01:10:08;;;;;;;4.88;3.40;;;12.60;64.00;;;;;;4998025;28;20054;-74
2022/05/25 01:13:12;;;;;;;4.55;3.25;;;12.60;64.10;;;;;;4998118;28;20043;-74
2022/05/25 01:15:49;;;;;;;5.13;3.00;;;12.60;64.10;;;;;;5014426;28;20125;-75
2022/05/25 01:18:31;;;;;;;5.05;4.00;;;12.60;64.20;;;;;;5009280;28;20371;-75
2022/05/25 01:21:28;;;;;;;5.00;3.88;;;12.60;64.30;;;;;;5003005;28;20068;-75
2022/05/25 01:24:10;;;;;;;4.20;3.58;;;12.60;64.40;;;;;;5006383;28;20065;-76
2022/05/25 01:27:18;;;;;;;4.75;3.95;;;12.60;64.40;;;;;;5014866;28;20053;-75
2022/05/25 01:30:03;;;;;;;4.03;3.05;;;12.50;64.30;;;;;;4996659;28;20042;-75
2022/05/25 01:32:50;;;;;;;5.85;4.68;;;12.40;64.30;;;;;;4996197;28;20073;-75
2022/05/25 01:35:25;;;;;;;4.50;3.65;;;12.50;64.40;;;;;;4982157;28;20054;-75
2022/05/25 01:37:54;;;;;;;6.93;4.45;;;12.50;64.50;;;;;;4995988;28;20049;-75
2022/05/25 01:40:59;;;;;;;6.72;4.68;;;12.60;64.50;;;;;;5003607;28;20124;-75
2022/05/25 01:43:46;;;;;;;5.32;3.97;;;12.50;64.60;;;;;;4997124;28;20077;-75
2022/05/25 01:46:34;;;;;;;4.82;3.67;;;12.50;64.60;;;;;;5015888;28;20045;-76
2022/05/25 01:49:06;;;;;;;5.68;4.03;;;12.50;64.60;;;;;;5010543;28;20072;-75
2022/05/25 01:51:48;;;;;;;3.60;3.08;;;12.50;64.60;;;;;;5002295;28;20073;-75
2022/05/25 01:54:19;;;;;;;5.25;3.85;;;12.40;64.70;;;;;;5010971;28;20417;-76
2022/05/25 01:56:49;;;;;;;5.10;4.10;;;12.50;64.70;;;;;;5015704;28;20370;-75
2022/05/25 01:59:17;;;;;;;5.28;4.78;;;12.60;64.80;;;;;;5010677;28;20044;-75
2022/05/25 02:04:19;;;;;;;5.57;4.97;;;12.50;64.80;;;;;;5003808;28;20050;-75
2022/05/25 02:04:44;;;;;;;7.22;5.53;;;12.50;64.80;;;;;;5008140;28;20052;-76
2022/05/25 02:07:09;;;;;;;8.27;5.32;;;12.40;64.80;;;;;;5012458;28;20137;-75
2022/05/25 02:10:01;;;;;;;6.57;4.82;;;12.50;64.90;;;;;;5005246;28;20125;-76
2022/05/25 02:12:32;;;;;;;9.07;6.25;;;12.40;64.90;;;;;;4972359;28;20058;-75
2022/05/25 02:15:15;;;;;;;5.82;5.07;;;12.40;64.90;;;;;;4969412;28;20053;-75
2022/05/25 02:17:51;;;;;;;7.63;6.28;;;12.40;65.00;;;;;;4957707;28;20127;-75
2022/05/25 02:20:32;;;;;;;4.75;4.13;;;12.30;65.00;;;;;;4947086;28;20074;-75
2022/05/25 02:23:04;;;;;;;6.43;4.95;;;12.30;65.10;;;;;;4972248;28;20441;-75
2022/05/25 02:25:50;;;;;;;6.00;4.18;;;12.30;65.20;;;;;;4970384;28;20441;-76
2022/05/25 02:28:30;;;;;;;6.25;5.40;;;12.30;65.10;;;;;;4973106;28;20050;-76
2022/05/25 02:30:58;;;;;;;5.45;4.82;;;12.30;65.20;;;;;;4961340;28;20387;-76
2022/05/25 02:33:35;;;;;;;6.93;5.68;;;12.20;65.10;;;;;;4972015;28;20066;-76
2022/05/25 02:36:01;;;;;;;6.82;6.18;;;12.20;65.20;;;;;;4966640;28;20055;-76
2022/05/25 02:38:28;;;;;;;6.38;5.13;;;12.20;65.20;;;;;;4939573;28;20042;-76
2022/05/25 02:41:13;;;;;;;6.45;4.90;;;12.20;65.40;;;;;;4969897;28;20059;-76
2022/05/25 02:43:39;;;;;;;5.05;3.88;;;12.20;65.40;;;;;;4962523;28;20070;-76
2022/05/25 02:46:07;;;;;;;7.45;5.20;;;12.10;65.30;;;;;;4941828;28;20486;-76
2022/05/25 02:48:36;;;;;;;5.80;5.00;;;12.10;65.40;;;;;;4974021;28;20050;-76
2022/05/25 02:51:02;;;;;;;6.40;5.60;;;12.10;65.40;;;;;;5007995;28;20052;-76
2022/05/25 02:53:28;;;;;;;8.90;6.30;;;12.10;65.40;;;;;;4998854;28;20042;-76
2022/05/25 02:55:53;;;;;;;5.55;4.80;;;12.10;65.50;;;;;;4995936;28;20053;-76
2022/05/25 02:58:19;;;;;;;6.53;5.50;;;12.10;65.50;;;;;;4997462;28;20497;-76
2022/05/25 03:00:45;;;;;;;8.13;5.78;;;12.10;65.50;;;;;;5001966;28;20053;-76
2022/05/25 03:03:12;;;;;;;5.93;5.10;;;12.00;65.50;;;;;;4995829;28;20137;-76
2022/05/25 03:05:39;;;;;;;9.32;7.00;;;12.10;65.60;;;;;;4996994;28;20046;-76
2022/05/25 03:08:05;;;;;;;8.98;6.65;;;12.10;65.70;;;;;;4986755;28;20399;-76
2022/05/25 03:10:31;;;;;;;6.65;5.88;;;12.10;65.70;;;;;;4991556;28;20045;-76
2022/05/25 03:12:57;;;;;;;7.13;6.30;;;12.10;65.70;;;;;;5013035;28;20103;-76
2022/05/25 03:15:23;;;;;;;8.15;6.72;;;12.10;65.70;;;;;;5010558;28;20132;-76
2022/05/25 03:17:48;;;;;;;7.13;5.72;;;12.00;65.60;;;;;;5010045;28;20045;-76
2022/05/25 03:20:15;;;;;;;11.32;8.40;;;12.10;65.70;;;;;;4998441;28;20045;-76
2022/05/25 03:22:44;;;;;;;6.75;5.60;;;12.00;65.80;;;;;;5012631;28;20046;-76
2022/05/25 03:25:13;;;;;;;6.40;5.22;;;12.00;65.80;;;;;;4996069;28;20048;-76
2022/05/25 03:27:39;;;;;;;7.55;6.85;;;12.10;65.80;;;;;;4994187;28;20441;-76
2022/05/25 03:30:08;;;;;;;7.38;6.18;;;12.00;65.80;;;;;;4994186;28;20093;-76
2022/05/25 03:32:34;;;;;;;7.78;6.20;;;12.00;65.80;;;;;;4994149;28;20053;-75
2022/05/25 03:35:00;;;;;;;10.68;7.47;;;12.00;65.80;;;;;;4996672;28;20080;-75
2022/05/25 03:37:27;;;;;;;6.57;5.75;;;12.00;65.80;;;;;;4995713;28;20049;-76
2022/05/25 03:39:52;;;;;;;8.43;6.88;;;12.00;65.90;;;;;;4995135;28;20057;-76
2022/05/25 03:42:19;;;;;;;6.00;5.32;;;12.00;65.90;;;;;;4994197;28;20046;-76
2022/05/25 03:44:45;;;;;;;6.93;5.95;;;12.00;65.90;;;;;;4994544;28;20042;-76
2022/05/25 03:47:11;;;;;;;7.93;6.53;;;12.00;66.00;;;;;;4996228;28;20038;-76
2022/05/25 03:49:37;;;;;;;9.25;6.28;;;12.00;66.00;;;;;;4996346;28;20042;-76
2022/05/25 03:52:04;;;;;;;8.30;7.35;;;12.00;66.00;;;;;;4992896;28;20046;-76
2022/05/25 03:54:30;;;;;;;7.63;6.63;;;12.00;66.10;;;;;;5001168;28;20524;-76
2022/05/25 03:56:56;;;;;;;7.57;6.50;;;11.90;66.00;;;;;;5012059;28;20050;-76
2022/05/25 03:59:22;;;;;;;11.10;7.88;;;11.90;66.00;;;;;;4993829;28;20053;-75
2022/05/25 04:01:48;;;;;;;8.05;6.13;;;11.90;66.10;;;;;;4994442;28;20042;-76
2022/05/25 04:04:14;;;;;;;9.18;8.23;;;12.00;66.20;;;;;;4995404;28;20054;-76
2022/05/25 04:06:39;;;;;;;7.68;6.88;;;12.00;66.30;;;;;;4997788;28;20050;-76
2022/05/25 04:09:05;;;;;;;9.50;7.78;;;11.90;66.80;;;;;;4999170;28;20069;-76
2022/05/25 04:11:32;;;;;;;7.80;7.00;;;11.90;66.50;;;;;;5005319;28;20054;-76
2022/05/25 04:13:59;;;;;;;9.75;8.18;;;11.90;66.60;;;;;;5009189;28;20050;-76
2022/05/25 04:16:25;;;;;;;10.32;7.38;;;11.90;66.70;;;;;;5004108;28;20081;-76
2022/05/25 04:18:51;;;;;;;8.43;6.78;;;11.90;66.90;;;;;;5014342;28;20081;-76
2022/05/25 04:21:17;;;;;;;7.88;7.07;;;11.80;66.90;;;;;;5007767;28;20081;-76
2022/05/25 04:23:43;;;;;;;8.38;7.13;;;11.80;66.90;;;;;;4996016;28;20046;-77
2022/05/25 04:26:08;;;;;;;9.07;7.43;;;11.90;67.10;;;;;;5005312;28;20046;-76
2022/05/25 04:28:35;;;;;;;10.45;8.00;;;11.80;67.10;;;;;;5015474;28;20045;-77
2022/05/25 04:31:01;;;;;;;9.32;7.75;;;11.80;67.20;;;;;;5002535;28;20073;-77
2022/05/25 04:33:29;;;;;;;10.05;8.23;;;11.90;67.40;;;;;;5015930;28;20058;-77
2022/05/25 04:35:56;;;;;;;11.85;8.23;;;11.80;67.50;;;;;;5011271;28;20042;-77
2022/05/25 04:38:23;;;;;;;8.85;7.85;;;11.90;67.70;;;;;;5016341;28;20128;-77
2022/05/25 04:40:48;;;;;;;9.20;8.18;;;11.90;67.80;;;;;;5010816;28;20053;-77
2022/05/25 04:43:20;;;;;;;12.75;9.10;;;11.90;68.00;;;;;;4997649;28;20047;-77
2022/05/25 04:45:48;;;;;;;10.00;8.07;;;11.80;68.20;;;;;;4996857;28;20042;-77
2022/05/25 04:48:15;;;;;;;12.13;9.32;;;11.80;68.30;;;;;;4997373;28;20057;-77
2022/05/25 04:50:43;;;;;;;9.73;8.20;;;11.90;68.40;;;;;;4998416;28;20386;-77
2022/05/25 04:53:12;;;;;;;10.50;9.40;;;11.90;68.60;;;;;;5004788;28;20050;-77
2022/05/25 04:58:34;;;;;;;10.32;8.48;;;11.90;68.70;;;;;;4996901;28;20046;-78
2022/05/25 05:01:00;;;;;;;10.55;9.43;;;11.90;68.80;;;;;;5004290;28;20121;-77
2022/05/25 05:03:27;;;;;;;12.77;9.27;;;12.00;69.20;;;;;;5015165;28;20053;-77
2022/05/25 05:05:54;;;;;;;12.02;9.73;;;12.00;69.80;;;;;;5008090;28;20042;-77
2022/05/25 05:08:20;;;;;;;11.50;8.52;;;12.10;70.30;;;;;;5003272;28;20038;-77
2022/05/25 05:10:46;;;;;;;11.23;10.00;;;12.30;70.60;;;;;;5012573;28;20461;-77
2022/05/25 05:13:12;;;;;;;10.48;9.35;;;12.50;70.80;;;;;;4998511;28;20150;-77
2022/05/25 05:15:41;;;;;;;12.73;9.23;;;12.80;70.80;;;;;;4998203;28;20133;-77
2022/05/25 05:18:07;;;;;;;10.23;8.30;;;13.20;70.60;;;;;;5000036;28;20054;-78
2022/05/25 05:20:33;;;;;;;10.18;8.05;;;13.60;70.00;;;;;;4996874;28;20042;-78
2022/05/25 05:22:59;;;;;;;10.10;8.20;;;14.00;69.40;;;;;;4999384;28;20054;-77
2022/05/25 05:25:24;;;;;;;9.98;8.50;;;14.40;68.50;;;;;;4996652;28;20052;-75
2022/05/25 05:27:50;;;;;;;10.45;7.93;;;14.80;67.60;;;;;;5003051;28;20093;-75
2022/05/25 05:30:20;;;;;;;11.15;8.25;;;15.20;66.90;;;;;;4998918;28;20077;-77
2022/05/25 05:32:46;;;;;;;10.82;6.97;;;15.60;65.80;;;;;;5002080;28;20038;-77
2022/05/25 05:35:12;;;;;;;8.75;6.57;;;15.90;65.10;;;;;;4998257;28;20124;-78
2022/05/25 05:37:51;;;;;;;9.75;7.28;;;16.30;64.20;;;;;;4997334;28;20462;-75
2022/05/25 05:40:18;;;;;;;8.18;7.32;;;16.60;63.30;;;;;;4996295;28;20068;-75
2022/05/25 05:42:47;;;;;;;10.60;7.13;;;16.90;62.50;;;;;;4999578;28;20053;-76
2022/05/25 05:45:21;;;;;;;9.27;7.13;;;17.30;61.50;;;;;;5016042;28;20385;-76
2022/05/25 05:47:55;;;;;;;9.77;7.18;;;17.70;60.60;;;;;;5003364;28;20117;-76
2022/05/25 05:50:23;;;;;;;9.10;6.78;;;17.90;60.70;;;;;;4994781;28;20047;-76
2022/05/25 05:52:50;;;;;;;9.20;7.00;;;18.20;60.10;;;;;;4999059;28;20053;-77
2022/05/25 05:55:17;;;;;;;10.85;6.65;;;18.50;59.10;;;;;;5015580;28;20042;-76
2022/05/25 05:57:44;;;;;;;9.68;6.75;;;18.70;58.90;;;;;;5009196;28;20508;-76
2022/05/25 06:00:13;;;;;;;10.38;6.80;;;19.00;58.30;;;;;;5005120;28;20052;-78
2022/05/25 06:02:38;;;;;;;11.02;7.32;;;19.30;57.40;;;;;;5002829;28;20046;-78
2022/05/25 06:05:04;;;;;;;12.32;7.65;;;19.60;57.00;;;;;;5002463;28;20042;-76
2022/05/25 06:07:30;;;;;;;7.85;6.95;;;19.90;56.70;;;;;;4995875;28;20058;-76
2022/05/25 06:09:56;;;;;;;7.93;7.13;;;20.20;56.10;;;;;;4996722;28;20038;-76
2022/05/25 06:12:23;;;;;;;9.52;7.35;;;20.50;55.30;;;;;;4995265;28;20389;-76
2022/05/25 06:14:48;;;;;;;10.27;6.50;;;20.70;54.80;;;;;;5002182;28;20046;-76
2022/05/25 06:19:58;;;;;;;;;;;21.30;53.80;;;;;;5011495;28;20382;-76
2022/05/25 06:22:25;;;;;;;8.07;6.30;;;21.50;52.90;;;;;;5015127;28;19989;-76
2022/05/25 06:24:52;;;;;;;11.20;7.68;;;21.80;53.10;;;;;;4998996;28;20508;-76
2022/05/25 06:27:19;;;;;;;9.05;6.53;;;22.00;52.30;;;;;;4995282;28;20486;-75
2022/05/25 06:29:48;;;;;;;13.82;6.88;;;22.20;51.60;;;;;;5008455;28;20065;-75
2022/05/25 06:32:19;;;;;;;8.00;6.22;;;22.40;51.00;;;;;;5015073;28;20053;-75
2022/05/25 06:34:48;;;;;;;7.18;6.25;;;22.50;50.70;;;;;;5001097;28;20054;-75
2022/05/25 06:37:16;;;;;;;7.38;6.00;;;22.70;50.60;;;;;;4993116;28;20053;-75
2022/05/25 06:39:42;;;;;;;9.23;6.32;;;22.90;49.90;;;;;;5001209;28;20046;-75
2022/05/25 06:42:08;;;;;;;6.97;5.78;;;23.10;49.40;;;;;;5026456;28;20058;-75
2022/05/25 06:44:34;;;;;;;6.20;5.38;;;23.20;49.20;;;;;;5005824;28;20508;-75
2022/05/25 06:47:00;;;;;;;8.93;5.63;;;23.40;48.30;;;;;;5000659;28;20480;-75
2022/05/25 06:49:26;;;;;;;7.63;5.43;;;23.50;48.40;;;;;;5004177;28;20129;-75
2022/05/25 06:51:51;;;;;;;7.60;5.45;;;23.60;47.70;;;;;;5011587;28;20129;-75
2022/05/25 06:54:18;;;;;;;6.75;5.40;;;23.70;47.30;;;;;;5006294;28;20126;-76
2022/05/25 06:56:44;;;;;;;7.63;6.10;;;23.80;47.20;;;;;;4994416;28;20490;-76
2022/05/25 06:59:10;;;;;;;6.82;5.05;;;23.90;47.00;;;;;;4995004;28;20138;-76
2022/05/25 07:01:38;;;;;;;8.10;5.60;;;24.00;46.70;;;;;;4994166;28;20050;-76
2022/05/25 07:04:05;;;;;;;9.43;6.60;;;24.10;46.40;;;;;;4997127;28;20497;-76
2022/05/25 07:06:31;;;;;;;7.28;5.82;;;24.20;46.10;;;;;;5014468;28;20053;-75
2022/05/25 07:08:57;;;;;;;7.80;5.53;;;24.20;46.00;;;;;;4997779;28;20150;-76
2022/05/25 07:11:23;;;;;;;7.43;5.05;;;24.20;45.60;;;;;;4993541;28;20074;-77
2022/05/25 07:13:50;;;;;;;7.00;5.85;;;24.20;45.70;;;;;;4996617;28;20062;-76
2022/05/25 07:16:18;;;;;;;7.85;5.18;;;24.30;45.80;;;;;;5003917;28;20505;-76
2022/05/25 07:18:45;;;;;;;7.65;5.40;;;24.30;45.70;;;;;;4994138;28;20038;-77
2022/05/25 07:21:25;;;;;;;7.75;5.43;;;24.30;45.40;;;;;;4998093;28;20046;-76
2022/05/25 07:23:53;;;;;;;7.15;5.10;;;24.40;45.30;;;;;;5010783;28;20100;-76
2022/05/25 07:26:19;;;;;;;6.65;5.45;;;24.40;45.90;;;;;;4996564;28;20042;-76
2022/05/25 07:28:46;;;;;;;9.35;5.00;;;24.50;45.70;;;;;;4992664;28;20046;-76
2022/05/25 07:31:53;;;;;;;7.55;5.07;;;24.50;45.40;;;;;;4994285;28;20498;-76
2022/05/25 07:34:24;;;;;;;8.82;5.50;;;24.60;45.90;;;;;;4956047;28;20087;-78
2022/05/25 07:37:00;;;;;;;5.95;4.68;;;24.70;45.50;;;;;;4943380;29;20044;-77
2022/05/25 07:39:32;;;;;;;5.75;5.18;;;24.80;45.60;;;;;;4946574;28;20047;-78
2022/05/25 07:42:01;;;;;;;6.07;3.60;;;24.90;44.90;;;;;;4936579;29;20047;-77
2022/05/25 07:44:32;;;;;;;5.13;3.83;;;24.90;44.60;;;;;;4945875;29;20043;-77
2022/05/25 07:46:57;;;;;;;7.53;4.90;;;24.80;44.20;;;;;;4939758;29;20422;-77
2022/05/25 07:49:23;;;;;;;6.28;4.32;;;24.80;44.20;;;;;;4952094;29;20055;-77
2022/05/25 07:51:53;;;;;;;5.13;4.03;;;24.80;44.60;;;;;;4934416;29;20208;-77
2022/05/25 07:54:19;;;;;;;6.95;4.20;;;24.80;44.20;;;;;;4935275;29;20110;-78
2022/05/25 07:56:45;;;;;;;6.57;4.50;;;24.80;44.40;;;;;;4934793;29;20043;-77
2022/05/25 07:59:13;;;;;;;7.10;3.63;;;24.80;44.00;;;;;;4942539;29;20450;-77
2022/05/25 08:07:17;;;;;;;5.85;3.72;;;24.90;44.20;;;;;;4988786;28;20129;-77
2022/05/25 08:09:43;;;;;;;8.63;4.10;;;24.90;44.20;;;;;;4979062;28;20050;-77
2022/05/25 08:12:10;;;;;;;6.15;3.60;;;24.90;43.60;;;;;;4994108;28;20054;-77
2022/05/25 08:14:36;;;;;;;4.80;3.38;;;24.90;43.20;;;;;;4992092;28;20042;-78
2022/05/25 08:17:04;;;;;;;6.22;3.70;;;24.90;43.70;;;;;;4988817;28;20491;-77
2022/05/25 08:19:30;;;;;;;7.95;3.65;;;24.90;43.80;;;;;;4975882;28;20145;-77
2022/05/25 08:21:56;;;;;;;5.28;3.30;;;24.90;43.30;;;;;;5011608;28;20050;-77
2022/05/25 08:24:22;;;;;;;4.53;3.03;;;24.90;43.70;;;;;;5009758;28;20053;-77
2022/05/25 08:26:47;;;;;;;3.72;2.85;;;24.80;42.90;;;;;;4994477;28;20043;-77
2022/05/25 08:29:13;;;;;;;4.95;2.95;;;24.80;43.30;;;;;;4991385;28;20046;-77
2022/05/25 08:31:39;;;;;;;5.13;2.80;;;24.80;43.30;;;;;;4989269;28;20431;-77
2022/05/25 08:34:05;;;;;;;5.32;2.45;;;24.80;43.00;;;;;;4981930;28;20050;-77
2022/05/25 08:36:32;;;;;;;5.50;3.35;;;24.80;42.80;;;;;;5005950;28;20051;-77
2022/05/25 08:38:58;;;;;;;4.97;3.17;;;24.80;43.60;;;;;;4980300;28;20089;-77
2022/05/25 08:41:37;;;;;;;4.68;3.22;;;24.80;43.90;;;;;;4991752;28;20557;-77
2022/05/25 08:44:04;;;;;;;5.00;2.63;;;24.90;43.90;;;;;;4993767;28;20101;-77
2022/05/25 08:46:32;;;;;;;4.30;2.95;;;24.90;43.60;;;;;;5000980;28;20497;-77
2022/05/25 08:49:06;;;;;;;4.78;2.42;;;24.90;43.70;;;;;;4975393;28;20078;-78
2022/05/25 08:51:45;;;;;;;;;;;25.00;43.20;;;;;;4984421;28;20058;-78
2022/05/25 08:54:11;;;;;;;3.17;2.80;;;25.00;43.90;;;;;;4978234;28;19922;-77
2022/05/25 08:56:46;;;;;;;5.25;3.50;;;25.00;43.40;;;;;;4989252;28;20113;-77
2022/05/25 08:59:26;;;;;;;5.18;2.95;;;25.10;43.30;;;;;;4994968;28;20402;-77
2022/05/25 09:02:13;;;;;;;5.38;2.80;;;25.10;42.90;;;;;;4995803;28;20753;-77
2022/05/25 09:05:18;;;;;;;6.93;3.30;;;25.10;43.30;;;;;;4985884;28;20476;-79
2022/05/25 09:07:59;;;;;;;4.05;2.97;;;25.10;42.60;;;;;;4994386;28;20046;-78
2022/05/25 09:10:28;;;;;;;5.28;2.92;;;24.90;42.20;;;;;;5018320;28;20482;-77
2022/05/25 09:13:08;;;;;;;3.90;2.47;;;24.80;42.30;;;;;;4992797;28;20053;-78
2022/05/25 09:16:26;;;;;;;4.32;2.42;;;24.60;42.10;;;;;;5007856;28;20050;-76
2022/05/25 09:18:39;;;;;;;5.78;2.78;;;24.50;42.30;;;;;;5006724;28;20794;-77
2022/05/25 09:21:06;;;;;;;5.88;2.65;;;24.30;42.90;;;;;;5007314;28;20054;-77
2022/05/25 09:23:32;;;;;;;4.50;2.65;;;24.20;43.10;;;;;;4990911;28;20058;-78
2022/05/25 09:25:59;;;;;;;4.15;2.08;;;24.10;42.20;;;;;;4982458;28;20097;-78
2022/05/25 09:28:42;;;;;;;5.22;2.22;;;24.00;41.60;;;;;;4984925;28;20054;-77
2022/05/25 09:31:13;;;;;;;2.85;2.00;;;23.90;42.10;;;;;;5009341;28;20859;-77
2022/05/25 09:33:48;;;;;;;4.00;2.22;;;23.80;41.90;;;;;;4996164;28;20073;-78
2022/05/25 09:36:21;;;;;;;4.97;2.67;;;23.70;41.80;;;;;;4991039;28;20050;-77
2022/05/25 09:39:11;;;;;;;4.70;2.67;;;23.60;41.70;;;;;;4992801;28;20046;-77
2022/05/25 09:41:41;;;;;;;3.78;2.10;;;23.50;42.00;;;;;;4997679;28;20061;-77
2022/05/25 09:44:11;;;;;;;4.50;2.40;;;23.30;42.10;;;;;;4998043;28;20058;-77
2022/05/25 09:47:07;;;;;;;5.82;3.53;;;23.10;42.30;;;;;;4988894;28;20042;-77
2022/05/25 09:49:51;;;;;;;6.05;3.10;;;23.00;42.80;;;;;;4973381;28;20054;-77
2022/05/25 09:52:28;;;;;;;4.10;2.58;;;22.80;42.60;;;;;;4998065;28;20449;-77
2022/05/25 09:55:00;;;;;;;4.55;2.58;;;22.60;43.10;;;;;;4996036;28;20046;-77
2022/05/25 09:57:31;;;;;;;4.45;2.58;;;22.40;42.70;;;;;;4993104;28;20293;-78
2022/05/25 10:00:06;;;;;;;4.45;3.22;;;22.20;43.40;;;;;;4982101;28;20038;-77
2022/05/25 10:02:42;;;;;;;5.78;3.53;;;22.00;44.10;;;;;;5010862;28;20440;-77
2022/05/25 10:05:24;;;;;;;4.07;2.90;;;21.80;44.80;;;;;;4998877;28;20402;-78
2022/05/25 10:08:07;;;;;;;6.38;3.55;;;21.70;45.40;;;;;;4986352;28;20402;-76
2022/05/25 10:10:50;;;;;;;5.43;3.00;;;21.50;45.30;;;;;;4984722;28;20066;-77
2022/05/25 10:13:23;;;;;;;5.75;3.47;;;21.50;45.60;;;;;;5006493;28;20405;-78
2022/05/25 10:15:51;;;;;;;7.57;3.20;;;21.40;46.10;;;;;;5000164;28;20112;-76
2022/05/25 10:18:35;;;;;;;5.45;3.70;;;21.50;46.90;;;;;;5003872;28;20069;-77
2022/05/25 10:21:10;;;;;;;6.07;3.50;;;21.40;46.90;;;;;;4979780;28;20146;-76
2022/05/25 10:23:41;;;;;;;6.60;3.50;;;21.40;46.50;;;;;;4998683;28;20136;-77
2022/05/25 10:26:12;;;;;;;4.90;3.13;;;21.40;46.60;;;;;;4989160;28;20053;-77
2022/05/25 10:28:56;;;;;;;5.32;2.97;;;21.40;46.60;;;;;;4994054;28;20604;-77
2022/05/25 10:37:24;;;;;;;9.20;4.03;;;21.30;46.20;;;;;;4983121;28;20050;-77
2022/05/25 10:39:52;;;;;;;6.20;3.90;;;21.30;46.90;;;;;;5010316;28;20053;-77
2022/05/25 10:42:29;;;;;;;6.28;4.25;;;21.30;46.60;;;;;;4993541;28;20105;-78
2022/05/25 10:45:09;;;;;;;8.25;4.18;;;21.30;46.70;;;;;;4996948;28;20584;-77
2022/05/25 10:47:51;;;;;;;7.40;4.40;;;21.40;46.90;;;;;;4988548;28;20054;-76
2022/05/25 10:50:21;;;;;;;4.95;3.78;;;21.40;46.20;;;;;;4989877;28;20137;-77
2022/05/25 10:53:09;;;;;;;5.82;4.05;;;21.40;46.60;;;;;;4991614;28;20551;-77
2022/05/25 10:55:51;;;;;;;6.53;4.47;;;21.40;47.00;;;;;;4966614;28;20066;-77
2022/05/25 10:58:26;;;;;;;5.32;4.40;;;21.40;46.20;;;;;;4960594;28;20059;-77
2022/05/25 11:01:25;;;;;;;6.10;4.13;;;21.40;46.70;;;;;;4938179;28;20157;-77
2022/05/25 11:04:14;;;;;;;5.18;4.43;;;21.40;46.70;;;;;;4950464;28;20047;-77
2022/05/25 11:07:09;;;;;;;6.53;4.95;;;21.40;46.90;;;;;;4965054;28;20628;-77
2022/05/25 11:10:08;;;;;;;7.50;4.97;;;21.40;46.50;;;;;;4964532;28;20128;-77
2022/05/25 11:13:09;;;;;;;6.35;4.72;;;21.40;46.20;;;;;;4934418;28;20105;-77
2022/05/25 11:15:48;;;;;;;7.25;5.43;;;21.30;46.30;;;;;;4910232;29;20460;-78
2022/05/25 11:18:23;;;;;;;8.60;6.28;;;21.20;46.30;;;;;;4904904;29;20159;-77
2022/05/25 11:21:19;;;;;;;7.15;6.10;;;21.10;47.10;;;;;;4906404;29;20075;-77
2022/05/25 11:24:19;;;;;;;6.57;5.18;;;21.00;48.20;;;;;;4907367;29;20060;-76
2022/05/25 11:27:18;;;;;;;7.50;4.85;;;20.80;48.20;;;;;;4892063;29;20062;-76
2022/05/25 11:30:03;;;;;;;10.70;6.40;;;20.70;48.80;;;;;;4893984;29;20431;-75
2022/05/25 11:32:55;;;;;;;7.68;4.50;;;20.50;50.50;;;;;;4918071;29;20056;-77
2022/05/25 11:35:54;;;;;;;7.82;3.08;;;20.30;50.20;;;;;;4930178;29;20054;-76
2022/05/25 11:38:47;;;;;;;5.00;2.60;;;20.10;50.30;;;;;;4900451;29;20051;-75
2022/05/25 11:41:34;;;;;;;4.38;2.50;;;20.00;50.90;;;;;;4896185;29;20044;-75
2022/05/25 11:44:16;;;;;;;4.03;2.88;;;19.80;51.30;;;;;;4904673;29;20079;-75
2022/05/25 11:46:50;;;;;;;5.55;3.40;;;19.80;51.80;;;;;;4885612;29;20060;-76
2022/05/25 11:49:30;;;;;;;4.53;3.97;;;19.70;52.60;;;;;;4897118;29;20223;-76
2022/05/25 11:52:10;;;;;;;6.05;4.10;;;19.60;53.60;;;;;;4897110;29;20083;-76
2022/05/25 11:54:58;;;;;;;5.95;4.35;;;19.60;54.90;;;;;;4930748;29;20052;-76
2022/05/25 11:57:43;;;;;;;6.50;4.18;;;19.60;55.10;;;;;;4916241;29;20099;-76
2022/05/25 12:00:37;;;;;;;7.45;4.32;;;19.50;55.40;;;;;;4946557;29;20391;-75
2022/05/25 12:03:25;;;;;;;10.13;5.18;;;19.60;56.40;;;;;;4931621;29;20063;-76
2022/05/25 12:06:06;;;;;;;4.82;3.55;;;19.50;56.30;;;;;;4914875;29;20060;-75
2022/05/25 12:08:31;;;;;;;8.30;2.78;;;19.50;56.20;;;;;;4924308;29;20083;-76
2022/05/25 12:11:40;;;;;;;4.78;1.70;;;19.50;55.90;;;;;;4934281;29;20048;-76
2022/05/25 12:14:31;;;;;;;3.40;1.08;;;19.50;55.30;;;;;;4904221;29;20049;-76
2022/05/25 12:17:23;;;;;;;3.45;1.08;;;19.50;54.90;;;;;;4953270;29;20095;-76
2022/05/25 12:19:53;;;;;;;5.28;1.63;;;19.50;54.40;;;;;;4951636;29;20051;-76
2022/05/25 12:22:23;;;;;;;3.55;0.95;;;19.40;53.80;;;;;;4937513;29;20102;-76
2022/05/25 12:24:56;;;;;;;3.95;1.25;;;19.40;52.80;;;;;;4925733;29;20055;-76
2022/05/25 12:27:32;;;;;;;4.03;1.08;;;19.40;52.50;;;;;;4935703;29;20090;-76
2022/05/25 12:30:07;;;;;;;3.17;1.00;;;19.40;52.60;;;;;;4948753;29;20101;-76
2022/05/25 12:32:34;;;;;;;4.40;1.40;;;19.40;52.80;;;;;;4940841;29;20110;-75
2022/05/25 12:35:01;;;;;;;5.65;1.00;;;19.40;51.80;;;;;;4945950;29;20124;-76
2022/05/25 12:37:35;;;;;;;6.70;1.52;;;19.40;51.50;;;;;;4942234;29;20055;-76
2022/05/25 12:40:25;;;;;;;3.33;1.25;;;19.40;51.40;;;;;;4955257;29;20078;-76
2022/05/25 12:42:50;;;;;;;4.22;0.90;;;19.30;51.20;;;;;;4956689;29;20546;-77
2022/05/25 12:48:35;;;;;;;5.55;0.90;;;19.40;51.80;;;;;;4938444;29;20050;-78
2022/05/25 12:51:11;;;;;;;3.35;0.90;;;19.40;51.10;;;;;;4975026;28;20054;-77
2022/05/25 12:53:54;;;;;;;3.13;0.70;;;19.40;50.10;;;;;;4997801;28;20081;-77
2022/05/25 12:56:23;;;;;;;4.77;1.20;;;19.40;49.60;;;;;;4996168;28;20061;-76
2022/05/25 12:58:51;;;;;;;3.25;0.95;;;19.30;49.30;;;;;;4996347;28;20054;-75
2022/05/25 13:01:23;;;;;;;3.28;0.85;;;19.30;49.50;;;;;;4997856;28;20050;-76
2022/05/25 13:03:48;;;;;;;4.70;1.02;;;19.30;49.90;;;;;;4996529;28;20129;-77
2022/05/25 13:06:35;;;;;;;7.32;0.90;;;19.30;49.70;;;;;;4998380;28;20162;-76
2022/05/25 13:09:05;;;;;;;4.35;0.70;;;19.30;48.90;;;;;;4997012;28;20445;-76
2022/05/25 13:11:42;;;;;;;4.28;1.23;;;19.30;49.20;;;;;;4997848;28;20053;-77
2022/05/25 13:14:16;;;;;;;4.85;1.10;;;19.40;49.20;;;;;;4996889;28;20490;-78
2022/05/25 13:16:42;;;;;;;4.57;0.80;;;19.40;49.90;;;;;;5014549;28;20046;-77
2022/05/25 13:22:02;;;;;;;6.40;1.25;;;19.50;49.00;;;;;;4992427;28;20059;-77
2022/05/25 13:24:55;;;;;;;3.95;0.75;;;19.50;48.60;;;;;;4978717;28;20093;-78
2022/05/25 13:27:42;;;;;;;2.00;0.50;;;19.60;48.70;;;;;;4977295;28;20398;-77
2022/05/25 13:30:23;;;;;;;3.08;0.80;;;19.60;48.50;;;;;;4994277;28;20050;-77
2022/05/25 13:33:13;;;;;;;2.17;0.57;;;19.70;48.40;;;;;;4996625;28;20050;-77
2022/05/25 13:35:44;;;;;;;2.90;1.00;;;19.70;48.20;;;;;;4996240;28;20133;-77
2022/05/25 13:38:22;;;;;;;4.38;1.02;;;19.70;48.20;;;;;;4995646;28;20046;-76
2022/05/25 13:40:55;;;;;;;3.45;1.00;;;19.70;48.20;;;;;;4996248;28;20550;-76